createdAt,value
2022-08-30T00:01:24.444Z,15.73
2022-08-30T00:03:54.989Z,15.68
2022-08-30T00:06:25.131Z,15.69
2022-08-30T00:08:53.283Z,15.69
2022-08-30T00:11:23.327Z,15.74
2022-08-30T00:13:53.254Z,15.80
2022-08-30T00:16:23.314Z,15.79
2022-08-30T00:18:51.415Z,15.74
2022-08-30T00:21:20.362Z,15.75
2022-08-30T00:23:49.477Z,15.74
2022-08-30T00:26:17.284Z,15.75
2022-08-30T00:28:45.091Z,15.72
2022-08-30T00:31:15.433Z,15.73
2022-08-30T00:33:43.513Z,15.69
2022-08-30T00:36:11.282Z,15.67
2022-08-30T00:38:39.068Z,15.63
2022-08-30T00:41:08.611Z,15.52
2022-08-30T00:43:37.131Z,15.54
2022-08-30T00:46:08.086Z,15.53
2022-08-30T00:48:38.835Z,15.46
2022-08-30T00:51:12.032Z,15.30
2022-08-30T00:53:43.716Z,15.28
2022-08-30T00:56:13.264Z,15.25
2022-08-30T00:58:47.604Z,15.23
2022-08-30T01:01:15.805Z,15.19
2022-08-30T01:03:44.927Z,15.22
2022-08-30T01:06:15.496Z,15.22
2022-08-30T01:08:43.614Z,15.26
2022-08-30T01:11:14.790Z,15.30
2022-08-30T01:13:45.671Z,15.32
2022-08-30T01:16:13.837Z,15.28
2022-08-30T01:18:41.776Z,15.23
2022-08-30T01:21:16.887Z,15.18
2022-08-30T01:23:48.346Z,15.15
2022-08-30T01:26:17.377Z,15.11
2022-08-30T01:28:49.395Z,15.09
2022-08-30T01:31:17.425Z,15.12
2022-08-30T01:33:45.368Z,15.03
2022-08-30T01:36:17.271Z,15.03
2022-08-30T01:38:49.584Z,14.94
2022-08-30T01:41:20.748Z,14.90
2022-08-30T01:43:50.653Z,14.99
2022-08-30T01:46:20.597Z,14.99
2022-08-30T01:48:52.011Z,15.02
2022-08-30T01:51:23.315Z,15.03
2022-08-30T01:53:52.591Z,15.02
2022-08-30T01:56:20.468Z,15.01
2022-08-30T01:58:48.324Z,14.99
2022-08-30T02:01:19.733Z,15.09
2022-08-30T02:03:48.429Z,15.10
2022-08-30T02:06:18.862Z,14.98
2022-08-30T02:08:46.860Z,14.99
2022-08-30T02:11:16.915Z,14.93
2022-08-30T02:13:46.832Z,14.96
2022-08-30T02:16:16.650Z,14.91
2022-08-30T02:18:44.791Z,14.83
2022-08-30T02:21:13.821Z,14.77
2022-08-30T02:23:41.877Z,14.72
2022-08-30T02:26:10.624Z,14.63
2022-08-30T02:28:42.837Z,14.56
2022-08-30T02:31:20.476Z,14.52
2022-08-30T02:33:50.111Z,14.41
2022-08-30T02:36:19.050Z,14.44
2022-08-30T02:38:47.236Z,14.39
2022-08-30T02:41:15.135Z,14.39
2022-08-30T02:43:44.317Z,14.44
2022-08-30T02:46:12.315Z,14.49
2022-08-30T02:48:40.120Z,14.46
2022-08-30T02:51:11.678Z,14.42
2022-08-30T02:53:40.442Z,14.32
2022-08-30T02:56:09.351Z,14.28
2022-08-30T02:58:37.676Z,14.24
2022-08-30T03:01:07.175Z,14.25
2022-08-30T03:03:35.141Z,14.23
2022-08-30T03:06:03.512Z,14.23
2022-08-30T03:08:31.785Z,14.25
2022-08-30T03:10:59.977Z,14.35
2022-08-30T03:13:27.746Z,14.37
2022-08-30T03:15:55.606Z,14.32
2022-08-30T03:18:26.528Z,14.34
2022-08-30T03:20:55.025Z,14.33
2022-08-30T03:23:23.862Z,14.33
2022-08-30T03:25:52.110Z,14.32
2022-08-30T03:28:20.046Z,14.32
2022-08-30T03:30:48.081Z,14.41
2022-08-30T03:33:16.539Z,14.45
2022-08-30T03:35:48.051Z,14.45
2022-08-30T03:38:15.818Z,14.44
2022-08-30T03:40:44.673Z,14.45
2022-08-30T03:43:12.527Z,14.44
2022-08-30T03:45:40.783Z,14.42
2022-08-30T03:48:08.822Z,14.44
2022-08-30T03:50:36.906Z,14.39
2022-08-30T03:53:06.065Z,14.36
2022-08-30T03:55:34.021Z,14.32
2022-08-30T03:58:01.860Z,14.33
2022-08-30T04:00:29.736Z,14.30
2022-08-30T04:02:57.487Z,14.29
2022-08-30T04:05:25.453Z,14.24
2022-08-30T04:07:53.428Z,14.11
2022-08-30T04:10:23.068Z,14.05
2022-08-30T04:12:51.536Z,13.91
2022-08-30T04:15:20.814Z,13.90
2022-08-30T04:17:49.314Z,13.86
2022-08-30T04:20:17.305Z,13.82
2022-08-30T04:22:45.028Z,13.88
2022-08-30T04:25:15.712Z,13.94
2022-08-30T04:27:46.289Z,13.91
2022-08-30T04:30:15.269Z,13.93
2022-08-30T04:32:43.116Z,13.89
2022-08-30T04:35:11.744Z,13.86
2022-08-30T04:37:40.552Z,13.82
2022-08-30T04:40:11.017Z,13.87
2022-08-30T04:42:39.123Z,13.89
2022-08-30T04:45:10.947Z,13.88
2022-08-30T04:47:39.832Z,13.89
2022-08-30T04:50:10.575Z,13.91
2022-08-30T04:52:38.714Z,13.96
2022-08-30T04:55:08.702Z,13.97
2022-08-30T04:57:36.498Z,13.97
2022-08-30T05:00:06.604Z,13.97
2022-08-30T05:02:36.125Z,14.02
2022-08-30T05:05:22.241Z,14.10
2022-08-30T05:07:50.350Z,14.17
2022-08-30T05:10:18.250Z,14.25
2022-08-30T05:12:45.983Z,14.25
2022-08-30T05:15:14.294Z,14.24
2022-08-30T05:17:43.470Z,14.22
2022-08-30T05:20:12.630Z,14.24
2022-08-30T05:22:49.843Z,14.27
2022-08-30T05:25:23.152Z,14.28
2022-08-30T05:27:51.114Z,14.33
2022-08-30T05:30:19.881Z,14.40
2022-08-30T05:32:49.083Z,14.48
2022-08-30T05:35:22.185Z,14.56
2022-08-30T05:37:52.820Z,14.62
2022-08-30T05:40:20.953Z,14.70
2022-08-30T05:42:49.084Z,14.76
2022-08-30T05:45:17.082Z,14.78
2022-08-30T05:47:44.888Z,14.84
2022-08-30T05:50:14.328Z,14.90
2022-08-30T05:52:44.211Z,14.98
2022-08-30T05:55:13.089Z,15.05
2022-08-30T05:57:42.387Z,15.12
2022-08-30T06:00:13.487Z,15.20
2022-08-30T06:02:41.894Z,15.26
2022-08-30T06:05:10.762Z,15.31
2022-08-30T06:07:43.839Z,15.39
2022-08-30T06:10:12.330Z,15.45
2022-08-30T06:12:40.294Z,15.51
2022-08-30T06:15:09.182Z,15.57
2022-08-30T06:17:39.511Z,15.62
2022-08-30T06:20:09.049Z,15.70
2022-08-30T06:22:38.624Z,15.78
2022-08-30T06:25:09.151Z,15.85
2022-08-30T06:27:36.993Z,15.93
2022-08-30T06:30:08.188Z,15.97
2022-08-30T06:32:36.127Z,16.05
2022-08-30T06:35:04.678Z,16.11
2022-08-30T06:37:32.997Z,16.18
2022-08-30T06:40:02.507Z,16.27
2022-08-30T06:42:34.132Z,16.37
2022-08-30T06:45:03.380Z,16.43
2022-08-30T06:47:39.457Z,16.51
2022-08-30T06:50:08.791Z,16.60
2022-08-30T06:52:40.116Z,16.67
2022-08-30T06:55:08.492Z,16.77
2022-08-30T06:57:37.674Z,16.87
2022-08-30T07:00:07.264Z,16.94
2022-08-30T07:02:37.397Z,17.01
2022-08-30T07:05:05.719Z,17.10
2022-08-30T07:07:33.499Z,17.20
2022-08-30T07:10:03.408Z,17.32
2022-08-30T07:12:31.581Z,17.38
2022-08-30T07:15:00.754Z,17.47
2022-08-30T07:17:45.835Z,17.55
2022-08-30T07:20:13.892Z,17.64
2022-08-30T07:22:42.216Z,17.76
2022-08-30T07:25:10.418Z,17.89
2022-08-30T07:27:38.230Z,18.02
2022-08-30T07:30:09.518Z,18.15
2022-08-30T07:32:38.405Z,18.23
2022-08-30T07:35:07.095Z,18.34
2022-08-30T07:37:34.959Z,18.46
2022-08-30T07:40:03.276Z,18.58
2022-08-30T07:42:31.107Z,18.74
2022-08-30T07:44:58.939Z,18.88
2022-08-30T07:47:28.158Z,18.98
2022-08-30T07:49:55.964Z,19.08
2022-08-30T07:52:23.800Z,19.17
2022-08-30T07:54:52.851Z,19.29
2022-08-30T07:57:20.918Z,19.50
2022-08-30T07:59:48.696Z,19.59
2022-08-30T08:02:16.547Z,19.63
2022-08-30T08:04:48.480Z,19.75
2022-08-30T08:07:16.496Z,19.87
2022-08-30T08:09:44.251Z,20.02
2022-08-30T08:12:12.060Z,20.16
2022-08-30T08:14:40.756Z,20.32
2022-08-30T08:17:09.260Z,20.45
2022-08-30T08:19:37.103Z,20.54
2022-08-30T08:22:22.033Z,20.68
2022-08-30T08:24:50.345Z,20.84
2022-08-30T08:27:18.337Z,20.90
2022-08-30T08:29:46.102Z,20.98
2022-08-30T08:32:13.895Z,21.02
2022-08-30T08:34:42.309Z,21.19
2022-08-30T08:37:11.472Z,21.36
2022-08-30T08:39:39.351Z,21.52
2022-08-30T08:42:17.132Z,21.64
2022-08-30T08:44:55.807Z,21.82
2022-08-30T08:47:29.863Z,21.96
2022-08-30T08:50:00.647Z,22.14
2022-08-30T08:52:53.599Z,22.31
2022-08-30T08:55:23.970Z,22.46
2022-08-30T08:57:52.434Z,22.59
2022-08-30T09:00:20.616Z,22.79
2022-08-30T09:02:55.932Z,22.95
2022-08-30T09:05:26.847Z,23.12
2022-08-30T09:08:04.554Z,23.33
2022-08-30T09:10:50.077Z,23.50
2022-08-30T09:13:19.584Z,23.63
2022-08-30T09:15:54.631Z,23.78
2022-08-30T09:18:42.843Z,23.98
2022-08-30T09:21:14.968Z,24.19
2022-08-30T09:23:51.869Z,24.36
2022-08-30T09:26:30.679Z,24.57
2022-08-30T09:28:59.998Z,24.73
2022-08-30T09:31:30.995Z,24.88
2022-08-30T09:34:03.354Z,25.00
2022-08-30T09:36:35.052Z,25.18
2022-08-30T09:39:08.412Z,25.35
2022-08-30T09:41:41.200Z,25.52
2022-08-30T09:44:12.086Z,25.59
2022-08-30T09:46:46.284Z,25.82
2022-08-30T09:49:33.716Z,25.94
2022-08-30T09:52:18.697Z,26.24
2022-08-30T09:55:02.564Z,26.37
2022-08-30T09:57:37.488Z,26.47
2022-08-30T10:00:09.010Z,26.64
2022-08-30T10:02:53.275Z,26.68
2022-08-30T10:05:28.847Z,26.86
2022-08-30T10:08:07.211Z,27.00
2022-08-30T10:10:45.773Z,27.24
2022-08-30T10:13:38.127Z,27.38
2022-08-30T10:16:20.447Z,27.55
2022-08-30T10:18:58.534Z,27.64
2022-08-30T10:21:32.903Z,27.69
2022-08-30T10:24:05.636Z,27.76
2022-08-30T10:26:39.368Z,27.92
2022-08-30T10:29:12.397Z,28.13
2022-08-30T10:31:45.527Z,28.35
2022-08-30T10:34:19.098Z,28.61
2022-08-30T10:36:53.820Z,28.97
2022-08-30T10:39:26.541Z,29.20
2022-08-30T10:42:07.748Z,29.49
2022-08-30T10:44:41.215Z,29.67
2022-08-30T10:47:23.296Z,29.90
2022-08-30T10:49:57.745Z,29.88
2022-08-30T10:52:32.209Z,30.21
2022-08-30T10:55:03.682Z,30.47
2022-08-30T10:57:32.860Z,30.47
2022-08-30T11:00:05.908Z,30.77
2022-08-30T11:03:02.164Z,31.02
2022-08-30T11:05:46.570Z,31.22
2022-08-30T11:08:31.381Z,31.24
2022-08-30T11:11:07.614Z,31.31
2022-08-30T11:13:44.059Z,31.24
2022-08-30T11:16:15.698Z,31.29
2022-08-30T11:18:51.027Z,31.23
2022-08-30T11:21:32.668Z,31.35
2022-08-30T11:24:06.513Z,31.37
2022-08-30T11:27:11.184Z,31.37
2022-08-30T11:29:42.948Z,31.67
2022-08-30T11:32:45.728Z,31.77
2022-08-30T11:35:37.888Z,31.80
2022-08-30T11:38:14.842Z,32.03
2022-08-30T11:40:53.154Z,32.09
2022-08-30T11:43:51.829Z,32.26
2022-08-30T11:46:38.284Z,32.15
2022-08-30T11:49:36.667Z,32.30
2022-08-30T11:52:28.306Z,32.15
2022-08-30T11:55:31.572Z,32.37
2022-08-30T11:58:11.584Z,32.47
2022-08-30T12:00:42.348Z,32.60
2022-08-30T12:03:32.612Z,32.68
2022-08-30T12:06:02.468Z,32.75
2022-08-30T12:08:56.543Z,32.77
2022-08-30T12:11:58.525Z,32.72
2022-08-30T12:14:54.494Z,32.57
2022-08-30T12:17:44.734Z,32.30
2022-08-30T12:20:21.242Z,32.31
2022-08-30T12:22:49.942Z,32.50
2022-08-30T12:25:25.076Z,32.46
2022-08-30T12:27:53.168Z,32.51
2022-08-30T12:30:27.993Z,32.36
2022-08-30T12:32:58.619Z,32.19
2022-08-30T12:35:29.567Z,31.93
2022-08-30T12:38:02.908Z,31.61
2022-08-30T12:40:34.831Z,31.66
2022-08-30T12:43:08.436Z,31.38
2022-08-30T12:45:44.858Z,31.12
2022-08-30T12:48:16.779Z,31.03
2022-08-30T12:50:51.914Z,30.93
2022-08-30T12:53:27.353Z,30.90
2022-08-30T12:56:00.479Z,30.85
2022-08-30T12:58:40.864Z,31.16
2022-08-30T13:01:15.222Z,31.61
2022-08-30T13:03:43.195Z,31.65
2022-08-30T13:06:12.397Z,31.81
2022-08-30T13:08:53.204Z,31.77
2022-08-30T13:11:29.561Z,31.39
2022-08-30T13:14:19.142Z,31.32
2022-08-30T13:16:49.396Z,30.93
2022-08-30T13:19:29.112Z,31.11
2022-08-30T13:21:59.258Z,31.15
2022-08-30T13:24:28.071Z,30.44
2022-08-30T13:26:57.367Z,30.45
2022-08-30T13:29:27.567Z,30.36
2022-08-30T13:31:57.189Z,30.16
2022-08-30T13:34:25.175Z,30.07
2022-08-30T13:36:56.544Z,30.06
2022-08-30T13:39:25.262Z,30.35
2022-08-30T13:41:53.715Z,30.31
2022-08-30T13:44:22.038Z,30.54
2022-08-30T13:46:55.298Z,30.87
2022-08-30T13:49:45.146Z,31.15
2022-08-30T13:52:21.991Z,31.38
2022-08-30T13:54:51.101Z,31.28
2022-08-30T14:00:14.414Z,30.91
2022-08-30T14:02:47.765Z,30.99
2022-08-30T14:08:44.549Z,30.91
2022-08-30T14:10:56.511Z,30.68
2022-08-30T14:13:25.003Z,30.70
2022-08-30T14:18:43.600Z,30.57
2022-08-30T14:21:13.090Z,30.53
2022-08-30T14:23:40.850Z,30.37
2022-08-30T14:26:14.528Z,30.46
2022-08-30T14:28:45.064Z,30.41
2022-08-30T14:31:13.045Z,30.46
2022-08-30T14:33:41.547Z,30.54
2022-08-30T14:36:13.139Z,30.46
2022-08-30T14:38:45.408Z,30.45
2022-08-30T14:41:13.447Z,30.40
2022-08-30T14:43:41.437Z,30.28
2022-08-30T14:46:10.160Z,30.20
2022-08-30T14:48:39.442Z,30.26
2022-08-30T14:51:13.399Z,30.31
2022-08-30T14:53:41.852Z,30.27
2022-08-30T14:56:14.076Z,30.13
2022-08-30T14:58:41.990Z,29.77
2022-08-30T15:01:10.958Z,29.39
2022-08-30T15:03:42.173Z,29.33
2022-08-30T15:06:10.136Z,29.30
2022-08-30T15:08:39.370Z,28.97
2022-08-30T15:11:12.016Z,28.97
2022-08-30T15:13:41.160Z,29.06
2022-08-30T15:16:15.117Z,29.10
2022-08-30T15:18:43.004Z,28.98
2022-08-30T15:21:11.368Z,28.88
2022-08-30T15:23:39.803Z,28.86
2022-08-30T15:26:09.809Z,28.87
2022-08-30T15:28:39.104Z,28.94
2022-08-30T15:31:09.507Z,28.91
2022-08-30T15:33:38.636Z,28.88
2022-08-30T15:36:07.474Z,28.72
2022-08-30T15:38:35.727Z,28.66
2022-08-30T15:41:06.022Z,28.65
2022-08-30T15:43:34.787Z,28.66
2022-08-30T15:46:18.611Z,28.65
2022-08-30T15:48:47.668Z,28.63
2022-08-30T15:51:16.632Z,28.35
2022-08-30T15:53:44.860Z,28.38
2022-08-30T15:56:12.756Z,28.30
2022-08-30T15:58:40.984Z,28.27
2022-08-30T16:01:11.194Z,28.11
2022-08-30T16:03:41.533Z,27.89
2022-08-30T16:06:13.227Z,27.59
2022-08-30T16:08:41.287Z,27.48
2022-08-30T16:11:11.287Z,27.43
2022-08-30T16:13:42.104Z,27.26
2022-08-30T16:16:11.592Z,27.10
2022-08-30T16:18:40.419Z,26.89
2022-08-30T16:21:11.395Z,26.76
2022-08-30T16:23:40.897Z,26.71
2022-08-30T16:26:16.856Z,26.58
2022-08-30T16:28:46.094Z,26.44
2022-08-30T16:31:17.085Z,26.29
2022-08-30T16:33:45.695Z,26.23
2022-08-30T16:36:14.523Z,26.13
2022-08-30T16:38:42.508Z,26.07
2022-08-30T16:41:15.624Z,26.02
2022-08-30T16:43:46.963Z,26.00
2022-08-30T16:46:22.962Z,25.89
2022-08-30T16:48:51.347Z,25.81
2022-08-30T16:51:22.264Z,25.72
2022-08-30T16:53:50.565Z,25.64
2022-08-30T16:56:21.485Z,25.57
2022-08-30T16:58:56.489Z,25.43
2022-08-30T17:01:31.818Z,25.34
2022-08-30T17:04:00.039Z,25.28
2022-08-30T17:06:27.953Z,25.23
2022-08-30T17:08:56.536Z,25.09
2022-08-30T17:11:25.011Z,25.01
2022-08-30T17:13:53.488Z,24.94
2022-08-30T17:16:22.694Z,24.88
2022-08-30T17:18:59.783Z,24.77
2022-08-30T17:21:28.985Z,24.65
2022-08-30T17:24:01.352Z,24.53
2022-08-30T17:26:30.091Z,24.39
2022-08-30T17:28:57.882Z,24.34
2022-08-30T17:31:27.789Z,24.30
2022-08-30T17:34:02.933Z,24.21
2022-08-30T17:36:37.126Z,24.13
2022-08-30T17:39:10.954Z,23.97
2022-08-30T17:44:29.773Z,23.91
2022-08-30T17:46:59.705Z,23.75
2022-08-30T17:49:30.173Z,23.67
2022-08-30T17:51:58.826Z,23.60
2022-08-30T17:54:27.293Z,23.48
2022-08-30T17:56:55.293Z,23.28
2022-08-30T17:59:25.323Z,23.13
2022-08-30T18:01:55.333Z,23.08
2022-08-30T18:04:24.818Z,23.02
2022-08-30T18:06:54.739Z,22.90
2022-08-30T18:09:23.318Z,22.80
2022-08-30T18:11:52.308Z,22.77
2022-08-30T18:14:24.942Z,22.69
2022-08-30T18:16:54.687Z,22.57
2022-08-30T18:19:23.376Z,22.46
2022-08-30T18:21:51.230Z,22.40
2022-08-30T18:24:20.700Z,22.26
2022-08-30T18:26:48.581Z,22.20
2022-08-30T18:29:26.342Z,22.10
2022-08-30T18:31:59.263Z,22.01
2022-08-30T18:34:27.009Z,21.95
2022-08-30T18:36:55.018Z,21.89
2022-08-30T18:39:24.399Z,21.79
2022-08-30T18:41:54.596Z,21.68
2022-08-30T18:44:28.354Z,21.68
2022-08-30T18:47:00.199Z,21.54
2022-08-30T18:49:28.967Z,21.52
2022-08-30T18:52:00.492Z,21.32
2022-08-30T18:54:30.279Z,21.24
2022-08-30T18:56:58.054Z,21.17
2022-08-30T18:59:35.386Z,21.13
2022-08-30T19:02:05.593Z,21.06
2022-08-30T19:04:35.813Z,20.98
2022-08-30T19:07:05.103Z,20.85
2022-08-30T19:09:34.769Z,20.66
2022-08-30T19:12:02.881Z,20.57
2022-08-30T19:14:31.290Z,20.58
2022-08-30T19:17:01.073Z,20.54
2022-08-30T19:19:35.002Z,20.57
2022-08-30T19:22:06.153Z,20.57
2022-08-30T19:24:35.367Z,20.50
2022-08-30T19:27:03.413Z,20.46
2022-08-30T19:29:31.184Z,20.42
2022-08-30T19:31:58.925Z,20.39
2022-08-30T19:34:26.698Z,20.26
2022-08-30T19:36:55.852Z,20.28
2022-08-30T19:39:24.105Z,20.27
2022-08-30T19:41:53.526Z,20.22
2022-08-30T19:44:21.292Z,20.24
2022-08-30T19:46:49.027Z,20.22
2022-08-30T19:49:16.853Z,20.18
2022-08-30T19:51:46.691Z,20.14
2022-08-30T19:54:15.431Z,20.16
2022-08-30T19:56:45.555Z,20.17
2022-08-30T19:59:17.268Z,20.08
2022-08-30T20:01:45.783Z,20.16
2022-08-30T20:04:14.278Z,20.16
2022-08-30T20:06:42.472Z,20.03
2022-08-30T20:09:10.917Z,19.98
2022-08-30T20:11:38.896Z,19.99
2022-08-30T20:14:07.782Z,20.00
2022-08-30T20:16:38.106Z,19.92
2022-08-30T20:19:06.883Z,19.96
2022-08-30T20:21:34.700Z,19.93
2022-08-30T20:24:04.089Z,19.97
2022-08-30T20:24:24.179Z,23.89
2022-08-30T20:26:34.216Z,19.95
2022-08-30T20:29:02.640Z,19.91
2022-08-30T20:31:30.621Z,19.86
2022-08-30T20:33:59.929Z,19.81
2022-08-30T20:36:27.775Z,19.77
2022-08-30T20:38:55.556Z,19.74
2022-08-30T20:41:23.957Z,19.72
2022-08-30T20:43:52.882Z,19.73
2022-08-30T20:46:21.789Z,19.74
2022-08-30T20:48:49.646Z,19.69
2022-08-30T20:51:22.069Z,19.70
2022-08-30T20:53:50.503Z,19.76
2022-08-30T20:56:21.618Z,19.78
2022-08-30T20:58:50.100Z,19.73
2022-08-30T21:01:18.478Z,19.64
2022-08-30T21:03:47.598Z,19.64
2022-08-30T21:06:16.594Z,19.56
2022-08-30T21:08:45.802Z,19.59
2022-08-30T21:11:13.802Z,19.55
2022-08-30T21:13:41.584Z,19.52
2022-08-30T21:16:09.510Z,19.49
2022-08-30T21:18:40.112Z,19.52
2022-08-30T21:21:12.275Z,19.55
2022-08-30T21:23:40.114Z,19.57
2022-08-30T21:26:10.336Z,19.57
2022-08-30T21:28:38.757Z,19.54
2022-08-30T21:31:08.749Z,19.57
2022-08-30T21:33:36.891Z,19.48
2022-08-30T21:36:22.417Z,19.41
2022-08-30T21:38:52.569Z,19.40
2022-08-30T21:41:22.659Z,19.43
2022-08-30T21:43:57.885Z,19.46
2022-08-30T21:46:27.184Z,19.35
2022-08-30T21:48:55.286Z,19.33
2022-08-30T21:51:23.030Z,19.36
2022-08-30T21:53:50.824Z,19.34
2022-08-30T21:56:23.175Z,19.31
2022-08-30T21:58:51.365Z,19.22
2022-08-30T22:01:23.424Z,19.21
2022-08-30T22:03:51.974Z,19.29
2022-08-30T22:06:20.424Z,19.23
2022-08-30T22:08:50.131Z,19.23
2022-08-30T22:11:22.922Z,19.21
2022-08-30T22:13:52.000Z,19.14
2022-08-30T22:16:21.357Z,19.19
2022-08-30T22:18:50.111Z,19.14
2022-08-30T22:21:21.359Z,19.13
2022-08-30T22:23:49.329Z,19.02
2022-08-30T22:26:19.264Z,19.02
2022-08-30T22:28:48.617Z,19.04
2022-08-30T22:31:21.109Z,19.09
2022-08-30T22:33:49.623Z,19.08
2022-08-30T22:36:19.879Z,19.08
2022-08-30T22:38:48.590Z,19.08
2022-08-30T22:41:18.447Z,19.15
2022-08-30T22:43:50.610Z,19.19
2022-08-30T22:46:20.718Z,19.19
2022-08-30T22:48:59.196Z,19.16
2022-08-30T22:51:27.231Z,19.11
2022-08-30T22:53:55.762Z,19.11
2022-08-30T22:56:26.630Z,19.11
2022-08-30T22:58:56.859Z,19.04
2022-08-30T23:01:27.698Z,19.01
2022-08-30T23:03:56.030Z,19.08
2022-08-30T23:06:24.412Z,18.97
2022-08-30T23:08:52.193Z,18.91
2022-08-30T23:11:20.768Z,19.00
2022-08-30T23:13:49.075Z,19.06
2022-08-30T23:16:18.891Z,19.07
2022-08-30T23:18:47.719Z,19.02
2022-08-30T23:21:18.495Z,18.92
2022-08-30T23:24:04.151Z,18.94
2022-08-30T23:26:49.703Z,18.93
2022-08-30T23:29:35.457Z,19.00
2022-08-30T23:32:23.167Z,19.04
2022-08-30T23:35:08.592Z,19.02
2022-08-30T23:37:54.153Z,19.08
2022-08-30T23:40:39.896Z,19.13
2022-08-30T23:43:25.510Z,19.16
2022-08-30T23:46:10.717Z,19.20
2022-08-30T23:49:01.930Z,19.20
2022-08-30T23:51:46.966Z,19.25
2022-08-30T23:54:32.106Z,19.25
2022-08-30T23:57:17.572Z,19.25
